Terminal Aerodrome Forecast
Issued by NWS

Home | Current Version | Previous Version | Text Only | Print | Product List | Glossary On
Versions: 1 2 3 4 5 6 7 8 9 10 11 12 13 14 15 16
000
FTUS46 KLOX 282331
TAFWJF
TAF
KWJF 282331Z 2900/2924 27027G35KT P6SM FEW080
     FM290200 28018G28KT P6SM SCT250
     FM290600 26015KT P6SM SCT250
     FM291800 27020G28KT P6SM SCT250
     FM292100 27025G35KT P6SM SCT250=

USA.gov is the U.S. government's official web portal to all federal, state and local government web resources and services.